Time;durP1;ratioP1;P1;durP2;ratioP2;P2;SDS_P1;SDS_P2;PMS_P1;PMS_P2;Temp;Humidity;BMP_temperature;BMP_pressure;BME280_temperature;BME280_humidity;BME280_pressure;Samples;Min_cycle;Max_cycle;Signal;HPM_P1;HPM_P2
2021/05/25 00:00:37;;;;;;;8.25;5.20;;;19.10;99.90;;;;;;5031918;28;20022;-73
2021/05/25 00:03:07;;;;;;;9.55;4.80;;;19.20;99.90;;;;;;5033170;28;20053;-71
2021/05/25 00:05:33;;;;;;;8.88;5.20;;;19.20;99.90;;;;;;5033468;28;20022;-71
2021/05/25 00:07:59;;;;;;;9.73;4.40;;;19.30;99.90;;;;;;5033011;28;20485;-72
2021/05/25 00:10:29;;;;;;;8.55;4.57;;;19.30;99.90;;;;;;5032993;28;20044;-72
2021/05/25 00:12:56;;;;;;;9.57;4.85;;;19.40;99.90;;;;;;5032853;28;20041;-71
2021/05/25 00:15:26;;;;;;;8.45;4.47;;;19.40;99.90;;;;;;5032631;28;20128;-73
2021/05/25 00:17:53;;;;;;;4.78;3.75;;;19.40;99.90;;;;;;5033016;28;20474;-73
2021/05/25 00:20:22;;;;;;;4.82;3.72;;;19.40;99.90;;;;;;5036926;28;20478;-74
2021/05/25 00:22:48;;;;;;;3.67;3.17;;;19.50;99.90;;;;;;5036692;28;20461;-73
2021/05/25 00:25:15;;;;;;;5.35;3.53;;;19.50;99.90;;;;;;5035248;28;20035;-71
2021/05/25 00:27:42;;;;;;;3.88;3.40;;;19.50;99.90;;;;;;5036805;28;20030;-73
2021/05/25 00:30:10;;;;;;;3.40;3.10;;;19.50;99.90;;;;;;5036824;28;20029;-73
2021/05/25 00:32:36;;;;;;;3.88;3.25;;;19.50;99.90;;;;;;5035461;28;20033;-73
2021/05/25 00:35:03;;;;;;;5.35;2.97;;;;;;;;;;5036732;28;20474;-73
2021/05/25 00:37:29;;;;;;;4.20;2.70;;;19.60;99.90;;;;;;5036663;28;20049;-73
2021/05/25 00:39:55;;;;;;;5.88;3.20;;;19.60;99.90;;;;;;5036367;28;20494;-73
2021/05/25 00:42:21;;;;;;;7.28;3.28;;;19.60;99.90;;;;;;5036719;28;20116;-71
2021/05/25 00:44:47;;;;;;;6.18;2.65;;;19.60;99.90;;;;;;5036602;28;20026;-70
2021/05/25 00:47:13;;;;;;;3.58;2.97;;;19.60;99.90;;;;;;5036500;28;20430;-73
2021/05/25 00:49:38;;;;;;;3.30;2.72;;;19.60;99.90;;;;;;5035140;28;20025;-72
2021/05/25 00:52:05;;;;;;;2.90;2.60;;;19.60;99.90;;;;;;5036490;28;20711;-71
2021/05/25 00:54:31;;;;;;;6.63;3.42;;;19.60;99.90;;;;;;5035041;28;20386;-71
2021/05/25 00:56:58;;;;;;;5.10;2.95;;;19.60;99.90;;;;;;5036599;28;20025;-72
2021/05/25 00:59:25;;;;;;;4.13;2.33;;;19.70;99.90;;;;;;5034645;28;20028;-71
2021/05/25 01:01:51;;;;;;;8.90;2.97;;;19.60;99.90;;;;;;5036285;28;20576;-71
2021/05/25 01:04:17;;;;;;;7.15;2.75;;;19.70;99.90;;;;;;5036265;28;20036;-71
2021/05/25 01:06:43;;;;;;;5.32;3.15;;;19.70;99.90;;;;;;5036155;28;20029;-71
2021/05/25 01:09:10;;;;;;;3.78;2.85;;;19.70;99.90;;;;;;5034845;28;20029;-71
2021/05/25 01:11:39;;;;;;;5.93;2.45;;;19.70;99.90;;;;;;5034673;28;20437;-72
2021/05/25 01:14:05;;;;;;;5.45;2.50;;;19.70;99.90;;;;;;5034763;28;20033;-71
2021/05/25 01:16:31;;;;;;;4.82;2.75;;;19.70;99.90;;;;;;5035598;28;20422;-71
2021/05/25 01:18:58;;;;;;;4.35;2.78;;;19.70;99.90;;;;;;5035910;28;20034;-71
2021/05/25 01:21:26;;;;;;;3.47;2.70;;;19.70;99.90;;;;;;5034554;28;20036;-72
2021/05/25 01:23:52;;;;;;;6.68;2.10;;;19.70;99.90;;;;;;5035887;28;20033;-71
2021/05/25 01:26:18;;;;;;;7.65;2.33;;;19.70;99.90;;;;;;5035814;28;20026;-70
2021/05/25 01:28:47;;;;;;;6.18;2.80;;;19.70;99.90;;;;;;5035474;28;20065;-71
2021/05/25 01:31:13;;;;;;;6.93;2.15;;;19.70;99.90;;;;;;5035356;28;20065;-70
2021/05/25 01:33:40;;;;;;;2.80;2.45;;;19.70;99.90;;;;;;5035721;28;20065;-71
2021/05/25 01:36:08;;;;;;;5.05;2.78;;;19.70;99.90;;;;;;5035618;28;20404;-71
2021/05/25 01:38:35;;;;;;;5.82;2.30;;;19.70;99.90;;;;;;5035583;28;20033;-71
2021/05/25 01:41:03;;;;;;;3.55;2.40;;;19.70;99.90;;;;;;5035498;28;20036;-71
2021/05/25 01:43:29;;;;;;;4.82;2.38;;;19.70;99.90;;;;;;5035486;28;20047;-71
2021/05/25 01:45:55;;;;;;;5.43;2.50;;;19.60;99.90;;;;;;5034127;28;20466;-71
2021/05/25 01:48:21;;;;;;;8.93;3.03;;;19.70;99.90;;;;;;5035648;28;20081;-72
2021/05/25 01:50:47;;;;;;;3.47;2.40;;;19.60;99.90;;;;;;5035288;28;20522;-71
2021/05/25 01:53:18;;;;;;;2.33;2.05;;;19.60;99.90;;;;;;5033993;28;20156;-73
2021/05/25 01:55:49;;;;;;;8.77;2.60;;;19.60;99.90;;;;;;5035153;28;20037;-71
2021/05/25 01:58:18;;;;;;;4.72;2.05;;;19.50;99.90;;;;;;5035281;28;20038;-71
2021/05/25 02:00:47;;;;;;;4.95;2.17;;;19.50;99.90;;;;;;5035152;28;20082;-71
2021/05/25 02:03:13;;;;;;;5.32;2.10;;;19.50;99.90;;;;;;5034822;28;20040;-72
2021/05/25 02:05:40;;;;;;;6.68;1.80;;;19.50;99.90;;;;;;5033753;28;20613;-71
2021/05/25 02:08:07;;;;;;;4.40;2.28;;;19.50;99.90;;;;;;5033692;28;20033;-71
2021/05/25 02:10:45;;;;;;;2.92;1.88;;;19.50;99.90;;;;;;5033396;28;20029;-73
2021/05/25 02:13:22;;;;;;;3.30;2.63;;;19.50;99.90;;;;;;5033641;28;20037;-71
2021/05/25 02:15:50;;;;;;;2.83;2.10;;;19.50;99.90;;;;;;5034795;28;20045;-73
2021/05/25 02:18:23;;;;;;;6.63;2.42;;;19.50;99.90;;;;;;5033550;28;20099;-71
2021/05/25 02:20:50;;;;;;;7.47;2.00;;;19.40;99.90;;;;;;5034832;28;20380;-71
2021/05/25 02:23:16;;;;;;;2.40;2.00;;;19.50;99.90;;;;;;5034786;28;20026;-71
2021/05/25 02:25:43;;;;;;;3.17;1.98;;;19.50;99.90;;;;;;5033396;28;20025;-71
2021/05/25 02:28:10;;;;;;;5.68;2.13;;;19.40;99.90;;;;;;5033324;28;20087;-71
2021/05/25 02:30:37;;;;;;;2.20;1.90;;;19.40;99.90;;;;;;5034305;28;20057;-72
2021/05/25 02:33:09;;;;;;;4.90;2.17;;;19.40;99.90;;;;;;5034429;28;20446;-72
2021/05/25 02:35:36;;;;;;;3.58;1.90;;;19.30;99.90;;;;;;5034551;28;20056;-71
2021/05/25 02:38:04;;;;;;;5.07;2.33;;;19.40;99.90;;;;;;5034122;28;20045;-72
2021/05/25 02:40:31;;;;;;;4.82;2.22;;;19.30;99.90;;;;;;5032657;28;20140;-70
2021/05/25 02:42:57;;;;;;;5.18;2.30;;;19.30;99.90;;;;;;5033852;28;20025;-70
2021/05/25 02:45:23;;;;;;;6.70;2.28;;;19.30;99.90;;;;;;5033040;28;20033;-72
2021/05/25 02:47:49;;;;;;;6.47;2.08;;;19.30;99.90;;;;;;5033941;28;20021;-71
2021/05/25 02:50:15;;;;;;;4.28;2.80;;;19.20;99.90;;;;;;5032852;28;20029;-71
2021/05/25 02:52:44;;;;;;;4.30;1.80;;;19.20;99.90;;;;;;5034104;28;20042;-72
2021/05/25 02:55:12;;;;;;;7.45;2.65;;;19.20;99.90;;;;;;5032880;28;20382;-71
2021/05/25 02:57:38;;;;;;;5.15;2.28;;;19.20;99.90;;;;;;5034001;28;20040;-70
2021/05/25 03:00:15;;;;;;;6.80;2.50;;;19.10;99.90;;;;;;5032709;28;20030;-71
2021/05/25 03:02:41;;;;;;;5.22;2.13;;;19.10;99.90;;;;;;5032680;28;20136;-71
2021/05/25 03:05:09;;;;;;;3.65;2.30;;;19.10;99.90;;;;;;5033975;28;20151;-71
2021/05/25 03:07:36;;;;;;;6.63;2.38;;;19.10;99.90;;;;;;5034131;28;20036;-71
2021/05/25 03:10:05;;;;;;;4.07;1.95;;;19.10;99.90;;;;;;5033827;28;20374;-72
2021/05/25 03:12:31;;;;;;;6.47;2.20;;;19.00;99.90;;;;;;5033413;28;20466;-71
2021/05/25 03:14:57;;;;;;;6.30;2.70;;;19.00;99.90;;;;;;5033780;28;20041;-71
2021/05/25 03:17:23;;;;;;;6.05;2.47;;;19.00;99.90;;;;;;5031898;28;20051;-71
2021/05/25 03:19:49;;;;;;;3.25;2.33;;;19.00;99.90;;;;;;5033691;28;20025;-72
2021/05/25 03:22:16;;;;;;;3.40;2.38;;;19.00;99.90;;;;;;5033892;28;20033;-71
2021/05/25 03:24:42;;;;;;;6.05;2.35;;;19.00;99.90;;;;;;5032327;28;20360;-71
2021/05/25 03:27:08;;;;;;;4.30;2.20;;;19.00;99.90;;;;;;5032262;28;20030;-71
2021/05/25 03:29:34;;;;;;;6.63;2.25;;;18.90;99.90;;;;;;5032180;28;20532;-71
2021/05/25 03:32:00;;;;;;;3.40;1.90;;;18.90;99.90;;;;;;5033371;28;20068;-71
2021/05/25 03:34:26;;;;;;;6.82;2.47;;;19.00;99.90;;;;;;5032197;28;20036;-71
2021/05/25 03:36:52;;;;;;;3.92;2.33;;;18.90;99.90;;;;;;5033372;28;20029;-71
2021/05/25 03:39:18;;;;;;;4.57;1.95;;;18.90;99.90;;;;;;5033361;28;20033;-71
2021/05/25 03:41:44;;;;;;;5.40;2.20;;;18.90;99.90;;;;;;5033296;28;20033;-71
2021/05/25 03:44:13;;;;;;;3.53;2.33;;;18.90;99.90;;;;;;5031993;28;20029;-71
2021/05/25 03:46:40;;;;;;;5.88;2.38;;;18.90;99.90;;;;;;5033272;28;20030;-70
2021/05/25 03:49:06;;;;;;;4.70;2.33;;;18.90;99.90;;;;;;5031879;28;20029;-71
2021/05/25 03:51:32;;;;;;;5.40;2.30;;;18.90;99.90;;;;;;5033351;28;20036;-71
2021/05/25 03:54:00;;;;;;;2.75;2.35;;;18.90;99.90;;;;;;5033229;28;20037;-72
2021/05/25 03:56:33;;;;;;;3.88;2.40;;;18.90;99.90;;;;;;5032824;28;20424;-71
2021/05/25 03:58:59;;;;;;;6.60;2.50;;;19.00;99.90;;;;;;5033150;28;20053;-71
2021/05/25 04:01:27;;;;;;;26.65;3.38;;;19.00;99.90;;;;;;5031734;28;20524;-71
2021/05/25 04:03:55;;;;;;;6.00;2.92;;;19.00;99.90;;;;;;5033072;28;20045;-71
2021/05/25 04:06:22;;;;;;;3.67;2.40;;;19.00;99.90;;;;;;5032723;28;20025;-72
2021/05/25 04:08:48;;;;;;;4.50;2.20;;;19.00;99.90;;;;;;5031677;28;20033;-72
2021/05/25 04:11:16;;;;;;;5.03;2.60;;;19.00;99.90;;;;;;5031555;28;20041;-72
2021/05/25 04:13:42;;;;;;;7.10;3.00;;;19.00;99.90;;;;;;5031617;28;20048;-72
2021/05/25 04:16:10;;;;;;;7.00;3.25;;;19.10;99.90;;;;;;5031253;28;20055;-70
2021/05/25 04:18:36;;;;;;;5.05;3.17;;;19.00;99.90;;;;;;5031616;28;20029;-71
2021/05/25 04:21:03;;;;;;;6.05;4.50;;;18.90;99.90;;;;;;5032871;28;20099;-72
2021/05/25 04:23:29;;;;;;;7.35;4.25;;;18.80;99.90;;;;;;5032567;28;20080;-72
2021/05/25 04:25:54;;;;;;;6.05;3.00;;;18.70;99.90;;;;;;5032845;28;20080;-72
2021/05/25 04:28:20;;;;;;;6.90;3.60;;;18.70;99.90;;;;;;5032791;28;20037;-72
2021/05/25 04:30:46;;;;;;;5.43;3.17;;;18.70;99.90;;;;;;5031330;28;20454;-72
2021/05/25 04:33:12;;;;;;;7.55;4.03;;;18.70;99.90;;;;;;5032553;28;20056;-72
2021/05/25 04:35:39;;;;;;;8.77;4.13;;;18.70;99.90;;;;;;5031515;28;20379;-72
2021/05/25 04:38:05;;;;;;;8.45;4.55;;;18.60;99.90;;;;;;5032663;28;20076;-72
2021/05/25 04:40:33;;;;;;;7.15;5.15;;;18.60;99.90;;;;;;5032625;28;20100;-73
2021/05/25 04:42:59;;;;;;;6.70;4.93;;;18.70;99.90;;;;;;5032652;28;20466;-73
2021/05/25 04:45:26;;;;;;;8.13;5.10;;;18.60;99.90;;;;;;5032722;28;20053;-72
2021/05/25 04:47:52;;;;;;;8.50;5.75;;;18.50;99.90;;;;;;5032721;28;20087;-72
2021/05/25 04:50:19;;;;;;;6.75;5.22;;;18.60;99.90;;;;;;5032880;28;20040;-74
2021/05/25 04:52:47;;;;;;;11.43;5.88;;;18.50;99.90;;;;;;5031205;28;20033;-74
2021/05/25 04:55:16;;;;;;;9.95;5.93;;;18.50;99.90;;;;;;5031319;28;20037;-72
2021/05/25 04:57:42;;;;;;;8.20;6.00;;;18.40;99.90;;;;;;5032539;28;20025;-72
2021/05/25 05:00:11;;;;;;;9.00;5.97;;;18.30;99.90;;;;;;5032467;28;20058;-71
2021/05/25 05:02:37;;;;;;;8.30;5.80;;;18.30;99.90;;;;;;5032680;28;20083;-72
2021/05/25 05:05:04;;;;;;;9.75;6.75;;;18.10;99.90;;;;;;5034162;28;20022;-70
2021/05/25 05:07:30;;;;;;;9.93;7.10;;;18.10;99.90;;;;;;5036057;28;20036;-71
2021/05/25 05:09:55;;;;;;;8.75;6.80;;;18.00;99.90;;;;;;5035999;28;20022;-72
2021/05/25 05:12:21;;;;;;;11.18;7.45;;;18.00;99.90;;;;;;5036052;28;20045;-71
2021/05/25 05:14:47;;;;;;;9.65;7.07;;;17.90;99.90;;;;;;5035704;28;20041;-71
2021/05/25 05:17:13;;;;;;;15.35;7.35;;;17.90;99.90;;;;;;5034435;28;20049;-71
2021/05/25 05:19:39;;;;;;;8.73;7.80;;;17.80;99.90;;;;;;5036081;28;20029;-71
2021/05/25 05:22:05;;;;;;;9.52;8.15;;;17.80;99.90;;;;;;5034605;28;20029;-71
2021/05/25 05:24:31;;;;;;;10.77;8.55;;;17.80;99.90;;;;;;5035386;28;20474;-71
2021/05/25 05:26:56;;;;;;;9.30;7.32;;;17.80;99.90;;;;;;5034371;28;20031;-70
2021/05/25 05:29:22;;;;;;;11.45;7.50;;;17.80;99.90;;;;;;5034340;28;20425;-70
2021/05/25 05:31:48;;;;;;;10.00;7.07;;;17.80;99.90;;;;;;5035637;28;20040;-72
2021/05/25 05:34:14;;;;;;;9.77;7.68;;;17.80;99.90;;;;;;5034084;28;20052;-70
2021/05/25 05:36:40;;;;;;;11.73;7.78;;;17.90;99.90;;;;;;5033963;28;20378;-71
2021/05/25 05:39:07;;;;;;;9.07;7.43;;;17.90;99.90;;;;;;5035226;28;20037;-71
2021/05/25 05:41:33;;;;;;;12.02;7.93;;;17.90;99.90;;;;;;5035105;28;20422;-71
2021/05/25 05:43:59;;;;;;;11.90;7.60;;;17.90;99.90;;;;;;5033977;28;20078;-71
2021/05/25 05:46:25;;;;;;;10.43;7.65;;;18.00;99.90;;;;;;5035286;28;20034;-71
2021/05/25 05:48:51;;;;;;;9.98;7.20;;;18.00;99.90;;;;;;5035354;28;20137;-73
2021/05/25 05:51:18;;;;;;;11.77;7.68;;;18.10;99.90;;;;;;5033837;28;20099;-73
2021/05/25 05:53:44;;;;;;;7.97;7.07;;;18.20;99.90;;;;;;5035133;28;20378;-72
2021/05/25 05:56:10;;;;;;;10.15;6.78;;;18.20;99.90;;;;;;5035216;28;20033;-73
2021/05/25 05:58:36;;;;;;;8.50;7.20;;;18.30;99.90;;;;;;5035139;28;20028;-72
2021/05/25 06:01:02;;;;;;;9.85;7.03;;;18.40;99.90;;;;;;5035426;28;20038;-73
2021/05/25 06:03:28;;;;;;;7.72;6.93;;;18.40;99.90;;;;;;5034990;28;20083;-72
2021/05/25 06:05:54;;;;;;;8.10;6.78;;;18.50;99.90;;;;;;5034499;28;20100;-72
2021/05/25 06:08:21;;;;;;;13.95;6.82;;;18.60;99.90;;;;;;5034926;28;20386;-72
2021/05/25 06:10:52;;;;;;;8.38;6.30;;;18.60;99.90;;;;;;5033623;28;20029;-72
2021/05/25 06:13:23;;;;;;;7.75;5.72;;;18.70;99.90;;;;;;5034923;28;20038;-71
2021/05/25 06:15:52;;;;;;;11.93;6.35;;;18.70;99.90;;;;;;5034699;28;20391;-73
2021/05/25 06:18:18;;;;;;;11.50;7.40;;;18.90;99.90;;;;;;5035062;28;20582;-72
2021/05/25 06:20:44;;;;;;;12.25;6.95;;;19.00;99.90;;;;;;5034456;28;20061;-73
2021/05/25 06:23:09;;;;;;;7.20;6.00;;;19.00;99.90;;;;;;5034536;28;20378;-71
2021/05/25 06:25:35;;;;;;;10.35;6.40;;;19.10;99.90;;;;;;5034885;28;20036;-71
2021/05/25 06:28:02;;;;;;;9.27;7.25;;;19.10;99.90;;;;;;5034517;28;20030;-71
2021/05/25 06:30:29;;;;;;;9.85;6.22;;;19.10;99.90;;;;;;5034839;28;20088;-72
2021/05/25 06:32:55;;;;;;;8.30;6.35;;;19.10;99.90;;;;;;5034496;28;20055;-72
2021/05/25 06:35:21;;;;;;;10.38;6.20;;;19.20;99.90;;;;;;5032064;28;20119;-72
2021/05/25 06:37:46;;;;;;;7.63;5.65;;;19.20;99.90;;;;;;5033028;28;20057;-73
2021/05/25 06:40:13;;;;;;;9.07;6.75;;;19.40;99.90;;;;;;5033010;28;20021;-72
2021/05/25 06:42:39;;;;;;;10.13;6.05;;;19.40;99.90;;;;;;5034269;28;20458;-72
2021/05/25 06:45:06;;;;;;;6.82;5.00;;;19.50;99.90;;;;;;5034148;28;20059;-73
2021/05/25 06:47:32;;;;;;;8.15;6.28;;;19.60;99.90;;;;;;5032876;28;20421;-73
2021/05/25 06:49:58;;;;;;;13.77;5.72;;;19.80;99.90;;;;;;5034158;28;20029;-74
2021/05/25 06:52:24;;;;;;;6.43;5.63;;;19.80;99.90;;;;;;5034124;28;20034;-71
2021/05/25 06:57:54;;;;;;;7.65;5.55;;;;;;;;;;5034183;28;20031;-72
2021/05/25 07:00:21;;;;;;;6.35;5.75;;;20.20;99.90;;;;;;5033930;28;20025;-73
2021/05/25 07:02:47;;;;;;;8.10;5.95;;;20.20;99.90;;;;;;5032603;28;20132;-72
2021/05/25 07:05:13;;;;;;;6.47;5.78;;;20.20;99.90;;;;;;5032658;28;20505;-73
2021/05/25 07:07:39;;;;;;;5.93;5.32;;;20.20;99.90;;;;;;5032580;28;20032;-73
2021/05/25 07:10:06;;;;;;;8.25;5.50;;;20.30;99.90;;;;;;5032507;28;20025;-72
2021/05/25 07:12:32;;;;;;;9.40;4.88;;;20.50;99.90;;;;;;5033392;28;20486;-71
2021/05/25 07:14:58;;;;;;;6.47;5.00;;;20.50;99.90;;;;;;5032054;28;20057;-73
2021/05/25 07:17:24;;;;;;;5.32;4.82;;;20.60;99.90;;;;;;5031701;28;20054;-73
2021/05/25 07:19:49;;;;;;;6.38;5.47;;;20.70;99.90;;;;;;5030295;28;20025;-70
2021/05/25 07:22:16;;;;;;;8.23;4.85;;;20.80;99.90;;;;;;5030700;28;20545;-72
2021/05/25 07:24:42;;;;;;;6.47;5.13;;;20.80;99.90;;;;;;5032156;28;20033;-70
2021/05/25 07:27:09;;;;;;;6.22;5.13;;;20.80;99.90;;;;;;5032539;28;20069;-72
2021/05/25 07:29:35;;;;;;;7.30;5.00;;;21.00;99.90;;;;;;5033329;28;20067;-75
2021/05/25 07:32:01;;;;;;;7.85;5.00;;;21.10;99.90;;;;;;5031612;28;20476;-73
2021/05/25 07:34:27;;;;;;;5.72;5.13;;;21.10;99.90;;;;;;5032715;28;20101;-70
2021/05/25 07:36:53;;;;;;;8.00;4.10;;;21.20;99.90;;;;;;5031207;28;20049;-70
2021/05/25 07:39:19;;;;;;;9.18;4.97;;;21.40;99.90;;;;;;5031097;28;20060;-72
2021/05/25 07:41:45;;;;;;;8.18;5.15;;;21.50;99.90;;;;;;5032167;28;20144;-71
2021/05/25 07:44:11;;;;;;;7.97;5.43;;;21.60;99.90;;;;;;5032767;28;20022;-70
2021/05/25 07:46:37;;;;;;;7.57;4.50;;;21.70;99.90;;;;;;5033352;28;20033;-71
2021/05/25 07:49:04;;;;;;;10.02;4.68;;;21.70;99.90;;;;;;5033111;28;20047;-71
2021/05/25 07:51:30;;;;;;;4.78;4.13;;;21.70;99.90;;;;;;5032577;28;20504;-71
2021/05/25 07:53:57;;;;;;;5.28;4.10;;;21.90;99.90;;;;;;5031627;28;20025;-72
2021/05/25 07:56:24;;;;;;;6.15;4.22;;;21.90;99.90;;;;;;5030658;28;20488;-72
2021/05/25 07:58:50;;;;;;;9.18;4.18;;;22.10;99.90;;;;;;5029583;28;20367;-70
2021/05/25 08:01:16;;;;;;;4.55;4.15;;;22.20;99.90;;;;;;5031013;28;20036;-71
2021/05/25 08:03:41;;;;;;;6.40;3.75;;;22.20;99.90;;;;;;5029992;28;20116;-73
2021/05/25 08:06:07;;;;;;;8.00;4.25;;;22.40;99.90;;;;;;5031220;28;20017;-70
2021/05/25 08:08:33;;;;;;;6.20;4.47;;;22.40;99.90;;;;;;5030700;28;20028;-70
2021/05/25 08:11:00;;;;;;;4.05;3.70;;;22.50;99.90;;;;;;5032377;28;20379;-71
2021/05/25 08:13:27;;;;;;;3.92;3.63;;;22.60;99.90;;;;;;5031292;28;20037;-72
2021/05/25 08:15:54;;;;;;;5.28;3.95;;;22.80;99.90;;;;;;5032745;28;20052;-70
2021/05/25 08:21:00;;;;;;;6.32;4.28;;;;;;;;;;5032894;28;20037;-73
2021/05/25 08:23:26;;;;;;;4.18;3.40;;;;;;;;;;5031538;28;20152;-70
2021/05/25 08:25:52;;;;;;;5.05;3.00;;;;;;;;;;5032722;28;20030;-72
2021/05/25 08:28:19;;;;;;;3.35;3.05;;;;;;;;;;5032919;28;20405;-72
2021/05/25 08:30:45;;;;;;;5.95;3.47;;;;;;;;;;5032734;28;20025;-71
2021/05/25 08:33:12;;;;;;;3.10;2.80;;;;;;;;;;5032716;28;20029;-70
2021/05/25 08:35:38;;;;;;;7.45;2.88;;;23.90;99.90;;;;;;5032665;28;20108;-70
2021/05/25 08:38:06;;;;;;;3.28;2.53;;;23.90;98.50;;;;;;5032797;28;20105;-71
2021/05/25 08:40:34;;;;;;;3.10;2.80;;;23.90;97.70;;;;;;5033865;28;20515;-71
2021/05/25 08:43:01;;;;;;;3.80;2.88;;;24.00;98.20;;;;;;5036525;28;20501;-70
2021/05/25 08:45:27;;;;;;;2.63;2.20;;;24.20;97.40;;;;;;5036542;28;20112;-71
2021/05/25 08:47:55;;;;;;;4.35;2.60;;;24.30;97.90;;;;;;5036479;28;20030;-70
2021/05/25 08:50:28;;;;;;;2.50;2.30;;;24.30;97.40;;;;;;5036488;28;20064;-73
2021/05/25 08:52:59;;;;;;;9.50;3.17;;;24.50;96.90;;;;;;5036345;28;20037;-72
2021/05/25 08:55:27;;;;;;;2.22;2.03;;;24.70;96.70;;;;;;5036440;28;20038;-69
2021/05/25 08:57:53;;;;;;;4.22;2.22;;;24.70;95.70;;;;;;5037068;28;20029;-70
2021/05/25 09:00:19;;;;;;;5.43;2.30;;;24.80;96.20;;;;;;5036270;28;20479;-70
2021/05/25 09:02:45;;;;;;;7.22;2.25;;;24.90;95.50;;;;;;5034840;28;20056;-69
2021/05/25 09:05:15;;;;;;;7.30;2.47;;;25.20;96.90;;;;;;5034714;28;20466;-73
2021/05/25 09:07:48;;;;;;;3.05;2.22;;;25.20;95.50;;;;;;5036012;28;20021;-72
2021/05/25 09:10:23;;;;;;;14.60;3.67;;;25.30;94.70;;;;;;5036015;28;20039;-72
2021/05/25 09:12:51;;;;;;;3.10;2.58;;;25.40;95.00;;;;;;5035845;28;20120;-70
2021/05/25 09:15:42;;;;;;;2.90;2.30;;;25.50;95.50;;;;;;5035518;28;20028;-70
2021/05/25 09:18:28;;;;;;;2.78;2.45;;;25.70;94.70;;;;;;5032588;28;20053;-70
2021/05/25 09:20:59;;;;;;;7.63;2.95;;;25.80;94.30;;;;;;5033922;28;20036;-70
2021/05/25 09:23:42;;;;;;;5.85;2.00;;;;;;;;;;5032387;28;20482;-70
2021/05/25 09:26:11;;;;;;;7.82;2.30;;;;;;;;;;5033717;28;20459;-69
2021/05/25 09:28:52;;;;;;;2.78;1.95;;;;;;;;;;5034270;28;20025;-69
2021/05/25 09:31:18;;;;;;;;;;;;;;;;;;5034865;28;20029;-72
2021/05/25 09:34:03;;;;;;;6.88;1.95;;;;;;;;;;5034188;28;19916;-69
2021/05/25 09:36:29;;;;;;;4.57;2.30;;;;;;;;;;5032868;28;20327;-70
2021/05/25 09:39:04;;;;;;;2.20;1.85;;;;;;;;;;5034669;28;20104;-73
2021/05/25 09:41:50;;;;;;;1.88;1.70;;;;;;;;;;5033616;28;20034;-73
2021/05/25 09:44:16;;;;;;;2.03;1.88;;;;;;;;;;5034820;28;20111;-73
2021/05/25 09:46:48;;;;;;;17.50;3.45;;;;;;;;;;5016410;28;20064;-74
2021/05/25 09:49:15;;;;;;;3.72;2.70;;;;;;;;;;5017548;28;20021;-72
2021/05/25 09:51:41;;;;;;;3.50;2.13;;;;;;;;;;5017018;28;20374;-73
2021/05/25 09:54:21;;;;;;;3.05;1.75;;;;;;;;;;5035157;28;20108;-72
2021/05/25 09:57:19;;;;;;;2.40;1.88;;;;;;;;;;5034930;28;20383;-73
2021/05/25 09:59:45;;;;;;;5.45;1.83;;;;;;;;;;4934154;29;20028;-69
2021/05/25 10:02:19;;;;;;;8.95;2.28;;;;;;;;;;4954659;29;20120;-72
2021/05/25 10:05:00;;;;;;;9.48;2.10;;;;;;;;;;4954771;29;20540;-71
2021/05/25 10:07:27;;;;;;;;;;;;;;;;;;4954874;29;20032;-70
2021/05/25 10:09:55;;;;;;;6.13;2.30;;;;;;;;;;4954141;29;19957;-72
2021/05/25 10:12:22;;;;;;;3.30;1.60;;;;;;;;;;4951437;29;20090;-73
2021/05/25 10:14:48;;;;;;;2.70;1.88;;;;;;;;;;4937288;29;20118;-71
2021/05/25 10:17:30;;;;;;;6.75;1.70;;;;;;;;;;4953831;29;20055;-70
2021/05/25 10:19:56;;;;;;;;;;;;;;;;;;4954751;29;20035;-73
2021/05/25 10:22:23;;;;;;;5.75;1.70;;;;;;;;;;4937661;29;19914;-70
2021/05/25 10:24:50;;;;;;;3.25;1.90;;;;;;;;;;4939784;29;20211;-71
2021/05/25 10:27:16;;;;;;;3.08;2.05;;;;;;;;;;4934633;29;20066;-72
2021/05/25 10:29:43;;;;;;;3.03;1.55;;;;;;;;;;4935485;29;20126;-72
2021/05/25 10:32:19;;;;;;;3.15;1.75;;;;;;;;;;4953710;29;20369;-71
2021/05/25 10:34:47;;;;;;;5.72;2.03;;;29.60;73.90;;;;;;4975023;28;20490;-72
2021/05/25 10:37:16;;;;;;;3.95;1.70;;;;;;;;;;5034380;28;20470;-69
2021/05/25 10:39:44;;;;;;;4.28;2.05;;;29.80;75.10;;;;;;5034325;28;20056;-71
2021/05/25 10:42:20;;;;;;;3.60;1.80;;;;;;;;;;5033427;28;20466;-72
2021/05/25 10:44:49;;;;;;;3.45;1.75;;;;;;;;;;5034294;28;20087;-72
2021/05/25 10:47:21;;;;;;;4.95;1.73;;;;;;;;;;5033289;28;20765;-71
2021/05/25 10:49:53;;;;;;;2.88;1.52;;;;;;;;;;5033716;28;20109;-72
2021/05/25 10:52:21;;;;;;;2.83;1.58;;;;;;;;;;5035010;28;20375;-72
2021/05/25 10:54:49;;;;;;;2.83;1.55;;;;;;;;;;5033986;28;20029;-72
2021/05/25 10:57:27;;;;;;;3.30;1.55;;;;;;;;;;5033707;28;20014;-70
2021/05/25 11:00:12;;;;;;;2.92;1.45;;;;;;;;;;5033485;28;20079;-70
2021/05/25 11:02:49;;;;;;;5.68;1.63;;;;;;;;;;5031303;28;20591;-71
2021/05/25 11:05:31;;;;;;;3.17;1.50;;;;;;;;;;5033544;28;20025;-72
2021/05/25 11:08:17;;;;;;;3.67;1.38;;;;;;;;;;5032541;28;20021;-71
2021/05/25 11:10:45;;;;;;;3.65;1.60;;;;;;;;;;5033291;28;20032;-72
2021/05/25 11:13:17;;;;;;;3.20;1.52;;;;;;;;;;5032161;28;20470;-72
2021/05/25 11:16:03;;;;;;;3.25;1.95;;;;;;;;;;5033652;28;20562;-71
2021/05/25 11:21:41;;;;;;;6.82;1.38;;;;;;;;;;5002263;28;20109;-72
2021/05/25 11:24:27;;;;;;;6.43;1.58;;;;;;;;;;5032550;28;20513;-72
2021/05/25 11:26:56;;;;;;;7.22;1.60;;;;;;;;;;5032931;28;20017;-71
2021/05/25 11:29:23;;;;;;;2.72;0.93;;;;;;;;;;5033271;28;20219;-71
2021/05/25 11:31:50;;;;;;;4.28;1.67;;;;;;;;;;5033202;28;20049;-71
2021/05/25 11:34:19;;;;;;;2.35;1.23;;;;;;;;;;5032024;28;20112;-71
2021/05/25 11:36:46;;;;;;;1.73;1.02;;;;;;;;;;5032607;28;20025;-72
2021/05/25 11:39:12;;;;;;;7.00;1.77;;;;;;;;;;5033419;28;20108;-71
2021/05/25 11:41:39;;;;;;;2.15;1.50;;;;;;;;;;5033322;28;20072;-70
2021/05/25 11:44:11;;;;;;;4.50;1.88;;;;;;;;;;5032863;28;20053;-72
2021/05/25 11:46:41;;;;;;;2.22;1.40;;;;;;;;;;5032788;28;20030;-70
2021/05/25 11:49:08;;;;;;;5.00;1.63;;;;;;;;;;5033310;28;20017;-71
2021/05/25 11:51:34;;;;;;;2.42;1.27;;;;;;;;;;5033234;28;20037;-71
2021/05/25 11:54:10;;;;;;;2.95;1.75;;;;;;;;;;5032998;28;20057;-71
2021/05/25 11:56:36;;;;;;;1.60;1.50;;;;;;;;;;5032444;28;20025;-72
2021/05/25 11:59:04;;;;;;;6.25;1.40;;;;;;;;;;5032111;28;20108;-70
2021/05/25 12:01:40;;;;;;;3.35;1.40;;;;;;;;;;5032096;28;20597;-76
2021/05/25 12:04:06;;;;;;;9.63;1.75;;;;;;;;;;5032279;28;20026;-72
2021/05/25 12:06:33;;;;;;;2.20;1.67;;;;;;;;;;5032193;28;20032;-75
2021/05/25 12:09:09;;;;;;;5.30;1.60;;;;;;;;;;5031943;28;20028;-74
2021/05/25 12:11:40;;;;;;;4.82;1.60;;;;;;;;;;5032833;28;20051;-73
2021/05/25 12:14:07;;;;;;;5.38;1.92;;;;;;;;;;5036130;28;20025;-74
2021/05/25 12:16:33;;;;;;;4.70;1.50;;;;;;;;;;5022791;28;20104;-72
2021/05/25 12:18:59;;;;;;;4.38;1.80;;;;;;;;;;5039198;28;20021;-70
2021/05/25 12:21:26;;;;;;;3.53;1.83;;;;;;;;;;5039353;28;20133;-71
2021/05/25 12:23:52;;;;;;;3.45;1.70;;;;;;;;;;5038533;28;20056;-72
2021/05/25 12:26:19;;;;;;;7.07;1.80;;;;;;;;;;5038653;28;20021;-72
2021/05/25 12:28:47;;;;;;;5.03;3.15;;;;;;;;;;5038932;28;20018;-71
2021/05/25 12:31:13;;;;;;;3.88;1.60;;;;;;;;;;5038440;28;20025;-73
2021/05/25 12:33:46;;;;;;;4.30;1.75;;;;;;;;;;5036750;28;20037;-71
2021/05/25 12:36:12;;;;;;;5.72;2.28;;;;;;;;;;5036723;28;20099;-73
2021/05/25 12:38:38;;;;;;;5.38;2.25;;;;;;;;;;5036737;28;20055;-71
2021/05/25 12:41:04;;;;;;;4.43;1.80;;;;;;;;;;5038031;28;20516;-71
2021/05/25 12:43:33;;;;;;;2.83;1.70;;;;;;;;;;5036677;28;20125;-72
2021/05/25 12:46:07;;;;;;;5.28;2.10;;;;;;;;;;5036725;28;20025;-71
2021/05/25 12:48:38;;;;;;;4.78;1.77;;;;;;;;;;5038126;28;20359;-71
2021/05/25 12:51:04;;;;;;;5.10;1.95;;;;;;;;;;5039257;28;20343;-72
2021/05/25 12:53:31;;;;;;;3.65;1.63;;;;;;;;;;5039071;28;20029;-71
2021/05/25 12:56:03;;;;;;;4.85;1.85;;;;;;;;;;5039033;28;20458;-72
2021/05/25 12:58:45;;;;;;;7.18;1.88;;;;;;;;;;5039143;28;20025;-71
2021/05/25 13:01:37;;;;;;;4.43;1.85;;;;;;;;;;5039100;28;20079;-70
2021/05/25 13:04:03;;;;;;;5.40;1.65;;;42.10;41.40;;;;;;5036176;28;20050;-71
2021/05/25 13:06:47;;;;;;;9.73;2.22;;;42.10;41.00;;;;;;5038999;28;20041;-69
2021/05/25 13:09:18;;;;;;;6.22;1.70;;;41.60;41.10;;;;;;5038976;28;20029;-70
2021/05/25 13:12:03;;;;;;;7.13;2.30;;;;;;;;;;5038683;28;20035;-71
2021/05/25 13:14:31;;;;;;;4.22;1.90;;;;;;;;;;5038937;28;20022;-70
2021/05/25 13:17:01;;;;;;;3.28;2.00;;;39.70;42.30;;;;;;5038917;28;20542;-71
2021/05/25 13:19:35;;;;;;;6.03;2.10;;;;;;;;;;5039040;28;20063;-70
2021/05/25 13:22:01;;;;;;;4.65;1.80;;;;;;;;;;5038978;28;20104;-71
2021/05/25 13:24:27;;;;;;;5.05;2.13;;;;;;;;;;5038727;28;20104;-70
2021/05/25 13:26:53;;;;;;;4.32;2.17;;;39.60;42.40;;;;;;5034986;28;20096;-70
2021/05/25 13:29:20;;;;;;;6.25;1.98;;;;;;;;;;5035770;28;20032;-70
2021/05/25 13:31:47;;;;;;;2.58;1.58;;;;;;;;;;5035635;28;20471;-70
2021/05/25 13:34:15;;;;;;;5.28;2.10;;;;;;;;;;5035559;28;20024;-71